createdAt,value
2018-03-03T00:02:25.694Z,80.30
2018-03-03T00:04:52.101Z,80.30
2018-03-03T00:07:18.526Z,80.30
2018-03-03T00:09:44.940Z,80.20
2018-03-03T00:12:11.336Z,80.20
2018-03-03T00:14:37.758Z,80.30
2018-03-03T00:17:04.206Z,80.30
2018-03-03T00:19:30.589Z,81.40
2018-03-03T00:21:56.988Z,81.40
2018-03-03T00:24:23.378Z,80.90
2018-03-03T00:26:50.539Z,81.60
2018-03-03T00:29:17.657Z,81.60
2018-03-03T00:31:44.640Z,81.60
2018-03-03T00:34:11.022Z,81.70
2018-03-03T00:36:37.421Z,82.50
2018-03-03T00:39:03.934Z,81.50
2018-03-03T00:41:30.333Z,81.20
2018-03-03T00:43:56.697Z,80.80
2018-03-03T00:46:23.066Z,80.90
2018-03-03T00:48:49.442Z,81.80
2018-03-03T00:51:15.820Z,81.40
2018-03-03T00:53:42.222Z,81.10
2018-03-03T00:56:08.608Z,81.00
2018-03-03T00:58:35.033Z,81.20
2018-03-03T01:01:02.402Z,83.00
2018-03-03T01:03:28.781Z,82.90
2018-03-03T01:05:55.186Z,83.00
2018-03-03T01:08:22.334Z,81.90
2018-03-03T01:10:49.483Z,81.80
2018-03-03T01:13:16.589Z,82.10
2018-03-03T01:15:43.001Z,82.10
2018-03-03T01:18:10.091Z,82.00
2018-03-03T01:20:36.505Z,82.30
2018-03-03T01:23:02.873Z,82.20
2018-03-03T01:25:29.274Z,82.10
2018-03-03T01:27:55.683Z,82.70
2018-03-03T01:30:22.077Z,83.10
2018-03-03T01:32:48.486Z,84.20
2018-03-03T01:35:15.739Z,84.30
2018-03-03T01:37:42.908Z,84.20
2018-03-03T01:40:09.285Z,84.20
2018-03-03T01:42:35.735Z,83.80
2018-03-03T01:45:02.117Z,83.50
2018-03-03T01:47:28.566Z,83.20
2018-03-03T01:49:54.966Z,82.70
2018-03-03T01:52:21.425Z,82.70
2018-03-03T01:54:47.793Z,82.70
2018-03-03T01:57:14.161Z,84.20
2018-03-03T01:59:40.540Z,85.70
2018-03-03T02:02:06.909Z,85.50
2018-03-03T02:04:33.320Z,85.30
2018-03-03T02:06:59.702Z,84.90
2018-03-03T02:09:26.063Z,84.40
2018-03-03T02:11:52.427Z,84.10
2018-03-03T02:14:19.513Z,87.50
2018-03-03T02:16:45.987Z,87.50
2018-03-03T02:19:12.442Z,88.80
2018-03-03T02:21:39.616Z,88.60
2018-03-03T02:24:06.021Z,88.70
2018-03-03T02:26:33.154Z,88.20
2018-03-03T02:28:59.510Z,88.20
2018-03-03T02:31:25.920Z,87.50
2018-03-03T02:33:53.031Z,87.00
2018-03-03T02:36:19.497Z,86.90
2018-03-03T02:38:46.612Z,86.50
2018-03-03T02:41:13.076Z,86.50
2018-03-03T02:43:40.215Z,86.30
2018-03-03T02:46:06.579Z,86.10
2018-03-03T02:48:32.958Z,85.60
2018-03-03T02:50:59.345Z,85.40
2018-03-03T02:53:25.690Z,85.20
2018-03-03T02:55:52.045Z,85.00
2018-03-03T02:58:18.400Z,84.40
2018-03-03T03:00:45.572Z,84.70
2018-03-03T03:03:11.972Z,84.70
2018-03-03T03:05:39.158Z,84.60
2018-03-03T03:08:05.573Z,84.60
2018-03-03T03:10:31.972Z,84.50
2018-03-03T03:12:58.355Z,84.50
2018-03-03T03:15:24.728Z,84.20
2018-03-03T03:17:51.088Z,84.30
2018-03-03T03:20:18.217Z,84.20
2018-03-03T03:22:44.586Z,84.90
2018-03-03T03:25:10.955Z,84.10
2018-03-03T03:27:37.367Z,84.60
2018-03-03T03:30:03.731Z,85.30
2018-03-03T03:32:30.105Z,85.20
2018-03-03T03:34:56.521Z,85.30
2018-03-03T03:37:23.626Z,85.90
2018-03-03T03:39:50.004Z,85.90
2018-03-03T03:42:16.377Z,85.60
2018-03-03T03:44:42.762Z,86.20
2018-03-03T03:47:09.179Z,86.40
2018-03-03T03:49:35.559Z,86.10
2018-03-03T03:52:01.958Z,85.80
2018-03-03T03:54:29.052Z,85.30
2018-03-03T03:56:55.427Z,85.30
2018-03-03T03:59:21.921Z,85.00
2018-03-03T04:01:48.298Z,84.70
2018-03-03T04:04:15.413Z,84.60
2018-03-03T04:06:41.814Z,84.60
2018-03-03T04:09:08.225Z,85.20
2018-03-03T04:11:34.650Z,85.50
2018-03-03T04:14:01.035Z,86.20
2018-03-03T04:16:27.441Z,86.10
2018-03-03T04:18:53.854Z,85.50
2018-03-03T04:21:20.234Z,85.00
2018-03-03T04:23:46.661Z,84.90
2018-03-03T04:26:13.076Z,84.90
2018-03-03T04:28:39.550Z,85.10
2018-03-03T04:31:06.699Z,86.50
2018-03-03T04:33:33.877Z,86.60
2018-03-03T04:36:00.322Z,86.60
2018-03-03T04:38:26.770Z,86.20
2018-03-03T04:40:53.176Z,86.20
2018-03-03T04:43:19.534Z,86.20
2018-03-03T04:45:45.938Z,85.80
2018-03-03T04:48:12.320Z,85.20
2018-03-03T04:50:38.761Z,84.90
2018-03-03T04:53:05.932Z,84.30
2018-03-03T04:55:32.306Z,84.30
2018-03-03T04:57:58.740Z,84.40
2018-03-03T05:03:30.063Z,83.70
2018-03-03T05:06:02.399Z,84.00
2018-03-03T05:08:32.428Z,84.30
2018-03-03T05:10:58.829Z,84.30
2018-03-03T05:13:26.221Z,84.60
2018-03-03T05:18:59.800Z,85.20
2018-03-03T05:21:32.277Z,85.40
2018-03-03T05:27:05.977Z,85.40
2018-03-03T05:29:38.460Z,85.10
2018-03-03T05:35:13.603Z,84.50
2018-03-03T05:37:45.921Z,84.50
2018-03-03T05:40:19.174Z,84.20
2018-03-03T05:46:06.327Z,84.80
2018-03-03T05:51:50.755Z,85.40
2018-03-03T05:54:34.994Z,85.90
2018-03-03T05:57:02.222Z,85.10
2018-03-03T05:59:32.169Z,84.60
2018-03-03T06:02:04.641Z,84.60
2018-03-03T06:04:31.921Z,85.00
2018-03-03T06:07:05.217Z,85.30
2018-03-03T06:09:34.518Z,85.30
2018-03-03T06:12:00.932Z,84.90
2018-03-03T06:14:27.978Z,84.20
2018-03-03T06:16:54.389Z,84.40
2018-03-03T06:19:21.021Z,84.60
2018-03-03T06:21:47.397Z,84.10
2018-03-03T06:24:14.570Z,83.80
2018-03-03T06:26:41.654Z,83.70
2018-03-03T06:29:08.041Z,83.70
2018-03-03T06:31:34.403Z,84.10
2018-03-03T06:34:00.786Z,84.30
2018-03-03T06:36:27.192Z,85.40
2018-03-03T06:38:53.542Z,85.60
2018-03-03T06:41:19.978Z,84.70
2018-03-03T06:43:46.355Z,84.50
2018-03-03T06:46:12.820Z,84.00
2018-03-03T06:48:46.309Z,84.20
2018-03-03T06:51:12.740Z,84.10
2018-03-03T06:53:39.087Z,84.10
2018-03-03T06:56:05.455Z,84.10
2018-03-03T06:58:32.588Z,84.30
2018-03-03T07:00:58.952Z,84.30
2018-03-03T07:03:25.349Z,84.40
2018-03-03T07:05:51.706Z,85.40
2018-03-03T07:08:18.905Z,86.80
2018-03-03T07:10:45.250Z,86.80
2018-03-03T07:13:11.678Z,86.30
2018-03-03T07:15:38.112Z,86.10
2018-03-03T07:18:04.502Z,85.90
2018-03-03T07:20:30.873Z,85.40
2018-03-03T07:22:57.241Z,84.70
2018-03-03T07:25:23.660Z,84.10
2018-03-03T07:27:50.782Z,84.00
2018-03-03T07:30:17.939Z,83.60
2018-03-03T07:32:44.323Z,83.60
2018-03-03T07:35:10.763Z,83.30
2018-03-03T07:37:37.235Z,82.50
2018-03-03T07:40:03.603Z,82.70
2018-03-03T07:42:29.992Z,82.10
2018-03-03T07:44:56.366Z,82.10
2018-03-03T07:47:22.738Z,82.50
2018-03-03T07:49:49.202Z,82.20
2018-03-03T07:52:16.319Z,82.00
2018-03-03T07:54:42.745Z,82.00
2018-03-03T07:57:11.077Z,81.60
2018-03-03T07:59:37.493Z,81.80
2018-03-03T08:02:04.669Z,81.50
2018-03-03T08:04:31.106Z,81.50
2018-03-03T08:06:57.646Z,80.90
2018-03-03T08:09:24.930Z,80.90
2018-03-03T08:11:51.322Z,80.40
2018-03-03T08:14:17.674Z,80.60
2018-03-03T08:16:44.054Z,79.50
2018-03-03T08:19:11.153Z,79.80
2018-03-03T08:21:37.537Z,79.90
2018-03-03T08:24:03.966Z,78.60
2018-03-03T08:26:30.334Z,77.70
2018-03-03T08:28:57.483Z,79.60
2018-03-03T08:31:23.907Z,79.60
2018-03-03T08:33:50.322Z,78.70
2018-03-03T08:36:16.710Z,78.60
2018-03-03T08:38:43.146Z,78.80
2018-03-03T08:41:10.297Z,79.80
2018-03-03T08:43:36.646Z,79.80
2018-03-03T08:46:03.813Z,78.10
2018-03-03T08:48:30.233Z,78.10
2018-03-03T08:50:56.641Z,78.60
2018-03-03T08:53:23.794Z,76.60
2018-03-03T08:55:50.901Z,77.20
2018-03-03T08:58:17.327Z,77.10
2018-03-03T09:00:44.466Z,77.20
2018-03-03T09:03:10.832Z,77.20
2018-03-03T09:05:37.205Z,74.90
2018-03-03T09:08:03.590Z,74.80
2018-03-03T09:10:30.025Z,74.90
2018-03-03T09:12:56.424Z,75.00
2018-03-03T09:15:22.855Z,75.10
2018-03-03T09:17:49.252Z,74.70
2018-03-03T09:20:15.660Z,73.50
2018-03-03T09:22:42.811Z,73.50
2018-03-03T09:25:09.947Z,73.90
2018-03-03T09:27:37.097Z,72.90
2018-03-03T09:30:04.259Z,72.10
2018-03-03T09:32:31.366Z,73.20
2018-03-03T09:34:57.784Z,73.20
2018-03-03T09:37:24.210Z,73.20
2018-03-03T09:39:50.671Z,71.40
2018-03-03T09:42:17.086Z,70.90
2018-03-03T09:44:43.518Z,71.20
2018-03-03T09:47:09.912Z,71.40
2018-03-03T09:49:36.327Z,70.80
2018-03-03T09:52:03.472Z,71.10
2018-03-03T09:54:30.615Z,71.20
2018-03-03T09:56:57.746Z,70.70
2018-03-03T09:59:24.086Z,70.70
2018-03-03T10:01:52.333Z,69.80
2018-03-03T10:04:16.937Z,70.50
2018-03-03T10:06:43.308Z,71.10
2018-03-03T10:09:09.715Z,71.20
2018-03-03T10:11:36.138Z,70.50
2018-03-03T10:14:02.542Z,69.30
2018-03-03T10:16:28.962Z,69.80
2018-03-03T10:18:55.353Z,68.90
2018-03-03T10:21:22.505Z,69.60
2018-03-03T10:23:49.662Z,69.20
2018-03-03T10:26:16.127Z,69.10
2018-03-03T10:28:42.536Z,67.30
2018-03-03T10:31:09.797Z,68.00
2018-03-03T10:33:36.161Z,67.20
2018-03-03T10:36:02.586Z,67.40
2018-03-03T10:38:35.918Z,67.40
2018-03-03T10:41:03.098Z,66.20
2018-03-03T10:43:29.495Z,66.10
2018-03-03T10:45:56.674Z,65.70
2018-03-03T10:48:23.062Z,65.70
2018-03-03T10:50:49.506Z,64.90
2018-03-03T10:53:15.865Z,64.40
2018-03-03T10:55:42.305Z,65.30
2018-03-03T10:58:08.698Z,64.60
2018-03-03T11:00:35.828Z,63.90
2018-03-03T11:03:02.248Z,63.90
2018-03-03T11:05:28.695Z,63.90
2018-03-03T11:07:55.078Z,63.70
2018-03-03T11:10:21.458Z,63.00
2018-03-03T11:12:47.877Z,62.00
2018-03-03T11:15:14.299Z,61.70
2018-03-03T11:17:40.701Z,61.20
2018-03-03T11:20:07.697Z,60.40
2018-03-03T11:22:34.098Z,60.30
2018-03-03T11:25:00.530Z,59.60
2018-03-03T11:27:26.937Z,59.70
2018-03-03T11:29:53.438Z,59.70
2018-03-03T11:32:20.666Z,59.70
2018-03-03T11:34:47.222Z,59.60
2018-03-03T11:37:14.403Z,57.80
2018-03-03T11:39:41.642Z,57.80
2018-03-03T11:42:08.107Z,57.60
2018-03-03T11:44:34.574Z,57.10
2018-03-03T11:47:01.735Z,56.00
2018-03-03T11:49:28.882Z,56.30
2018-03-03T11:51:56.969Z,56.30
2018-03-03T11:54:23.427Z,56.30
2018-03-03T11:56:49.910Z,56.20
2018-03-03T11:59:17.044Z,55.80
2018-03-03T12:01:43.425Z,55.40
2018-03-03T12:04:09.845Z,55.50
2018-03-03T12:06:36.272Z,55.60
2018-03-03T12:09:02.720Z,54.60
2018-03-03T12:11:29.203Z,54.00
2018-03-03T12:13:55.677Z,54.50
2018-03-03T12:16:22.083Z,54.00
2018-03-03T12:18:49.258Z,53.70
2018-03-03T12:21:15.703Z,53.70
2018-03-03T12:23:42.086Z,53.90
2018-03-03T12:26:08.465Z,53.70
2018-03-03T12:28:34.845Z,53.20
2018-03-03T12:31:01.257Z,52.70
2018-03-03T12:33:27.688Z,52.70
2018-03-03T12:35:54.299Z,52.80
2018-03-03T12:38:20.691Z,52.80
2018-03-03T12:40:47.137Z,52.80
2018-03-03T12:43:13.554Z,52.50
2018-03-03T12:45:40.788Z,52.40
2018-03-03T12:48:07.969Z,52.10
2018-03-03T12:50:34.374Z,52.10
2018-03-03T12:53:00.795Z,51.70
2018-03-03T12:55:27.240Z,51.80
2018-03-03T12:57:54.421Z,50.90
2018-03-03T13:00:20.855Z,50.90
2018-03-03T13:02:47.283Z,50.20
2018-03-03T13:05:13.672Z,50.00
2018-03-03T13:07:40.110Z,50.00
2018-03-03T13:10:07.294Z,49.50
2018-03-03T13:12:33.718Z,49.50
2018-03-03T13:15:00.889Z,49.40
2018-03-03T13:17:27.355Z,49.40
2018-03-03T13:19:53.782Z,48.60
2018-03-03T13:22:20.173Z,48.70
2018-03-03T13:24:46.616Z,48.70
2018-03-03T13:27:12.976Z,48.40
2018-03-03T13:29:39.342Z,48.00
2018-03-03T13:32:06.045Z,47.30
2018-03-03T13:34:32.438Z,47.90
2018-03-03T13:36:58.830Z,47.30
2018-03-03T13:39:25.973Z,47.80
2018-03-03T13:41:52.412Z,47.80
2018-03-03T13:44:19.554Z,48.20
2018-03-03T13:46:45.951Z,48.10
2018-03-03T13:49:12.372Z,47.60
2018-03-03T13:51:38.772Z,46.80
2018-03-03T13:54:05.899Z,46.70
2018-03-03T13:56:32.360Z,47.10
2018-03-03T13:58:58.777Z,47.40
2018-03-03T14:01:25.160Z,47.20
2018-03-03T14:03:51.546Z,46.80
2018-03-03T14:06:17.961Z,46.80
2018-03-03T14:08:45.146Z,47.20
2018-03-03T14:11:11.552Z,47.20
2018-03-03T14:13:37.946Z,47.20
2018-03-03T14:16:05.094Z,47.30
2018-03-03T14:18:31.555Z,47.30
2018-03-03T14:20:58.655Z,46.60
2018-03-03T14:23:25.060Z,46.60
2018-03-03T14:25:51.468Z,46.50
2018-03-03T14:28:17.853Z,46.60
2018-03-03T14:30:44.256Z,46.40
2018-03-03T14:33:10.667Z,45.50
2018-03-03T14:35:37.099Z,45.90
2018-03-03T14:38:03.547Z,45.50
2018-03-03T14:40:29.975Z,45.50
2018-03-03T14:42:56.362Z,45.50
2018-03-03T14:45:23.551Z,45.60
2018-03-03T14:47:49.951Z,45.60
2018-03-03T14:50:17.122Z,45.60
2018-03-03T14:52:43.536Z,45.60
2018-03-03T14:55:10.687Z,45.50
2018-03-03T14:57:37.125Z,45.50
2018-03-03T15:00:05.291Z,45.60
2018-03-03T15:02:32.403Z,45.60
2018-03-03T15:04:58.790Z,45.60
2018-03-03T15:07:25.170Z,45.50
2018-03-03T15:09:51.555Z,45.50
2018-03-03T15:12:17.998Z,45.50
2018-03-03T15:14:44.507Z,45.50
2018-03-03T15:17:11.609Z,45.10
2018-03-03T15:19:38.083Z,45.10
2018-03-03T15:22:05.197Z,45.10
2018-03-03T15:24:31.598Z,45.10
2018-03-03T15:26:58.043Z,45.20
2018-03-03T15:29:24.406Z,45.20
2018-03-03T15:31:50.911Z,45.20
2018-03-03T15:34:17.340Z,45.20
2018-03-03T15:36:45.571Z,45.70
2018-03-03T15:39:11.995Z,45.10
2018-03-03T15:41:38.426Z,45.80
2018-03-03T15:44:04.846Z,46.40
2018-03-03T15:46:31.259Z,46.60
2018-03-03T15:48:57.693Z,46.70
2018-03-03T15:51:24.116Z,46.80
2018-03-03T15:53:50.537Z,46.60
2018-03-03T15:56:16.962Z,46.60
2018-03-03T15:58:43.459Z,46.60
2018-03-03T16:01:09.954Z,46.80
2018-03-03T16:03:37.055Z,46.90
2018-03-03T16:06:03.442Z,46.90
2018-03-03T16:08:30.594Z,47.80
2018-03-03T16:10:57.766Z,48.00
2018-03-03T16:13:24.164Z,48.00
2018-03-03T16:15:50.685Z,48.20
2018-03-03T16:18:17.241Z,49.10
2018-03-03T16:20:44.447Z,48.90
2018-03-03T16:23:10.882Z,49.00
2018-03-03T16:25:37.344Z,49.00
2018-03-03T16:28:03.699Z,49.30
2018-03-03T16:30:30.814Z,48.90
2018-03-03T16:32:57.241Z,48.90
2018-03-03T16:35:23.712Z,48.80
2018-03-03T16:37:50.885Z,47.80
2018-03-03T16:40:17.296Z,47.70
2018-03-03T16:42:43.708Z,47.30
2018-03-03T16:45:10.829Z,47.90
2018-03-03T16:47:37.242Z,48.00
2018-03-03T16:50:03.696Z,49.20
2018-03-03T16:52:30.083Z,50.80
2018-03-03T16:54:56.468Z,51.90
2018-03-03T16:57:22.901Z,52.80
2018-03-03T16:59:49.277Z,53.10
2018-03-03T17:02:15.828Z,53.80
2018-03-03T17:04:42.357Z,53.80
2018-03-03T17:07:08.783Z,56.70
2018-03-03T17:09:35.219Z,59.20
2018-03-03T17:12:01.613Z,59.80
2018-03-03T17:14:29.626Z,61.40
2018-03-03T17:16:57.005Z,61.40
2018-03-03T17:19:23.480Z,62.50
2018-03-03T17:21:49.900Z,63.90
2018-03-03T17:24:17.073Z,62.50
2018-03-03T17:26:43.534Z,62.50
2018-03-03T17:29:09.895Z,64.50
2018-03-03T17:31:37.103Z,65.50
2018-03-03T17:34:03.616Z,65.50
2018-03-03T17:36:30.018Z,66.80
2018-03-03T17:38:57.229Z,66.10
2018-03-03T17:41:23.667Z,66.10
2018-03-03T17:43:50.093Z,66.10
2018-03-03T17:46:16.505Z,66.60
2018-03-03T17:48:42.871Z,69.00
2018-03-03T17:51:09.308Z,68.70
2018-03-03T17:53:36.532Z,68.20
2018-03-03T17:56:02.976Z,68.20
2018-03-03T17:58:29.421Z,68.10
2018-03-03T18:00:55.925Z,68.10
2018-03-03T18:03:22.305Z,68.40
2018-03-03T18:05:49.690Z,69.90
2018-03-03T18:08:16.064Z,70.30
2018-03-03T18:10:42.541Z,72.20
2018-03-03T18:13:08.957Z,72.60
2018-03-03T18:15:36.081Z,72.60
2018-03-03T18:18:02.505Z,72.60
2018-03-03T18:20:29.560Z,72.20
2018-03-03T18:22:56.007Z,72.40
2018-03-03T18:25:23.138Z,73.10
2018-03-03T18:27:49.541Z,73.10
2018-03-03T18:30:15.934Z,72.20
2018-03-03T18:32:42.378Z,72.20
2018-03-03T18:35:08.811Z,72.10
2018-03-03T18:37:35.202Z,74.30
2018-03-03T18:40:01.647Z,74.80
2018-03-03T18:42:28.790Z,77.00
2018-03-03T18:44:55.966Z,77.40
2018-03-03T18:47:22.339Z,77.40
2018-03-03T18:49:48.884Z,78.00
2018-03-03T18:52:16.035Z,78.00
2018-03-03T18:54:42.454Z,77.90
2018-03-03T18:57:08.938Z,77.70
2018-03-03T18:59:35.369Z,77.70
2018-03-03T19:02:02.665Z,78.50
2018-03-03T19:04:29.076Z,78.00
2018-03-03T19:06:55.509Z,79.10
2018-03-03T19:09:21.912Z,80.30
2018-03-03T19:11:48.298Z,80.60
2018-03-03T19:14:14.775Z,81.90
2018-03-03T19:16:41.226Z,83.70
2018-03-03T19:19:07.597Z,82.80
2018-03-03T19:21:34.090Z,82.70
2018-03-03T19:24:00.505Z,85.40
2018-03-03T19:26:26.906Z,85.90
2018-03-03T19:28:54.118Z,83.60
2018-03-03T19:31:20.546Z,83.60
2018-03-03T19:33:47.081Z,84.10
2018-03-03T19:36:13.504Z,83.40
2018-03-03T19:38:40.802Z,84.50
2018-03-03T19:41:07.984Z,83.80
2018-03-03T19:43:34.453Z,83.80
2018-03-03T19:46:00.921Z,85.40
2018-03-03T19:48:27.367Z,86.30
2018-03-03T19:50:53.780Z,87.50
2018-03-03T19:53:20.915Z,87.70
2018-03-03T19:55:47.364Z,87.70
2018-03-03T19:58:13.779Z,88.40
2018-03-03T20:00:40.202Z,88.50
2018-03-03T20:03:06.677Z,87.40
2018-03-03T20:05:34.035Z,88.20
2018-03-03T20:08:00.435Z,89.30
2018-03-03T20:10:26.850Z,89.80
2018-03-03T20:12:53.268Z,89.60
2018-03-03T20:15:19.686Z,88.40
2018-03-03T20:17:46.104Z,88.10
2018-03-03T20:20:12.526Z,86.80
2018-03-03T20:22:38.932Z,86.60
2018-03-03T20:25:06.094Z,87.40
2018-03-03T20:27:32.496Z,87.30
2018-03-03T20:30:05.842Z,86.90
2018-03-03T20:32:32.259Z,86.90
2018-03-03T20:34:58.714Z,86.70
2018-03-03T20:37:25.738Z,86.60
2018-03-03T20:39:52.200Z,86.60
2018-03-03T20:42:18.606Z,86.20
2018-03-03T20:44:45.049Z,85.30
2018-03-03T20:47:11.447Z,84.60
2018-03-03T20:49:38.619Z,84.00
2018-03-03T20:52:05.015Z,84.00
2018-03-03T20:54:31.476Z,84.10
2018-03-03T20:56:57.880Z,85.10
2018-03-03T20:59:24.970Z,84.70
2018-03-03T21:01:51.355Z,84.70
2018-03-03T21:04:17.804Z,87.30
2018-03-03T21:06:44.977Z,86.70
2018-03-03T21:09:11.342Z,86.70
2018-03-03T21:11:37.801Z,86.50
2018-03-03T21:14:04.970Z,84.90
2018-03-03T21:16:31.403Z,84.90
2018-03-03T21:18:58.555Z,88.10
2018-03-03T21:21:24.972Z,88.10
2018-03-03T21:23:51.395Z,88.90
2018-03-03T21:26:18.510Z,86.70
2018-03-03T21:28:44.948Z,86.60
2018-03-03T21:31:12.155Z,85.10
2018-03-03T21:33:38.547Z,85.10
2018-03-03T21:36:04.959Z,85.80
2018-03-03T21:38:31.385Z,86.40
2018-03-03T21:40:57.823Z,86.20
2018-03-03T21:43:24.258Z,87.30
2018-03-03T21:45:50.671Z,88.30
2018-03-03T21:48:17.087Z,89.40
2018-03-03T21:50:43.493Z,90.00
2018-03-03T21:53:09.915Z,90.60
2018-03-03T21:55:37.048Z,91.50
2018-03-03T21:58:03.462Z,91.50
2018-03-03T22:00:29.896Z,91.60
2018-03-03T22:02:56.347Z,91.80
2018-03-03T22:05:23.528Z,91.50
2018-03-03T22:07:49.970Z,91.40
2018-03-03T22:10:16.428Z,91.30
2018-03-03T22:12:42.819Z,91.30
2018-03-03T22:15:09.214Z,91.70
2018-03-03T22:17:35.639Z,91.60
2018-03-03T22:20:02.869Z,91.20
2018-03-03T22:22:29.329Z,91.20
2018-03-03T22:24:55.707Z,91.00
2018-03-03T22:27:22.173Z,91.30
2018-03-03T22:29:48.605Z,91.50
2018-03-03T22:32:14.988Z,91.30
2018-03-03T22:34:41.388Z,91.70
2018-03-03T22:37:09.271Z,91.90
2018-03-03T22:39:35.756Z,92.20
2018-03-03T22:42:02.900Z,91.90
2018-03-03T22:44:29.331Z,91.80
2018-03-03T22:46:55.722Z,91.70
2018-03-03T22:49:22.128Z,91.60
2018-03-03T22:51:49.256Z,92.30
2018-03-03T22:54:15.710Z,92.30
2018-03-03T22:56:42.101Z,91.90
2018-03-03T22:59:08.467Z,92.50
2018-03-03T23:01:34.911Z,93.30
2018-03-03T23:04:02.101Z,93.10
2018-03-03T23:06:29.272Z,93.30
2018-03-03T23:08:55.677Z,93.20
2018-03-03T23:11:22.768Z,93.30
2018-03-03T23:13:49.144Z,93.10
2018-03-03T23:16:15.535Z,92.90
2018-03-03T23:18:41.928Z,92.90
2018-03-03T23:21:08.293Z,93.30
2018-03-03T23:23:34.719Z,93.50
2018-03-03T23:26:01.083Z,93.40
2018-03-03T23:28:27.482Z,93.30
2018-03-03T23:30:53.887Z,93.20
2018-03-03T23:33:20.274Z,93.30
2018-03-03T23:35:46.694Z,93.30
2018-03-03T23:38:13.862Z,92.50
2018-03-03T23:40:40.263Z,92.40
2018-03-03T23:43:07.444Z,93.00
2018-03-03T23:45:33.842Z,92.70
2018-03-03T23:48:00.222Z,92.50
2018-03-03T23:50:26.661Z,92.40
2018-03-03T23:52:53.047Z,92.20
2018-03-03T23:55:20.195Z,91.90
2018-03-03T23:57:47.311Z,91.70
